Meteosat more information blitzortung!


Radar lluvias  rain snow radar


Website of another weatherstation

Website of another weatherstation



No requiere especial atención con respecto al clima.    No hay Alarmas

Informes METAR proximidad

   
LEDA - Lleida/Alguaire
Actualización: 14-11-2018 14:00
Nubes dispersas  
Nubes dispersas  
   Viento: ENE 11.1 km/h
Viento: ENE 11.1 km/h
Temperatura: 18°C
Punto de rocío: 12°C
Humedad: 68%
Baromètro: 1023 hPa
Nublado: Nubes dispersas
Visibilidad: More than 10 km
detalles de la nube: Nubes dispersas 3000 ft
LEDA 141300Z 07006KT 050V110 9999 FEW030 18/12 Q1023
LEXJ - Santander
Actualización: 14-11-2018 14:00
Despejado  
Despejado  
   Viento: SSE 16.7 km/h
Viento: SSE 16.7 km/h
Temperatura: 22°C
Punto de rocío: 12°C
Humedad: 53%
Baromètro: 1018 hPa
Visibilidad: More than 10 km
detalles de la nube: Despejado
LEXJ 141300Z 16009KT 080V210 CAVOK 22/12 Q1018
LEBB - Bilbao
Actualización: 14-11-2018 14:00
Despejado  
Despejado  
   Viento: S 11.1 km/h
Viento: S 11.1 km/h
Temperatura: 22°C
Punto de rocío: 14°C
Humedad: 61%
Baromètro: 1019 hPa
Visibilidad: More than 10 km
detalles de la nube: Despejado
LEBB 141300Z 18006KT 120V260 CAVOK 22/14 Q1019 NOSIG
LEBL - Barcelona
Actualización: 14-11-2018 14:00
Parcialmente Nublado  
Parcialmente Nublado  
   Viento: ENE 22.2 km/h
Viento: ENE 22.2 km/h
Temperatura: 19°C
Punto de rocío: 16°C
Humedad: 83%
Baromètro: 1023 hPa
Nublado: Parcialmente Nublado
Visibilidad: More than 10 km
detalles de la nube: Parcialmente Nublado 1300 ft,
Parcialmente Nublado 2500 ft
LEBL 141300Z 07012KT 030V090 9999 SCT013 SCT025 19/16 Q1023 NOSIG
LEMD - Madrid
Actualización: 14-11-2018 14:00
Parcialmente Nublado  
Parcialmente Nublado  
   Viento: NE 5.6 km/h
Viento: NE 5.6 km/h
Temperatura: 16°C
Punto de rocío: 11°C
Humedad: 72%
Baromètro: 1022 hPa
Nublado: Parcialmente Nublado
Visibilidad: More than 10 km
detalles de la nube: Parcialmente Nublado 3000 ft
LEMD 141300Z 05003KT 340V100 9999 SCT030 16/11 Q1022 NOSIG
 

Guión original por  Saratoga-weather.org Adaptado para la plantilla por  Weerstation Leuven

Usted encontrará nuestra información del tiempo también en:

Weather Underground

Iberian Peninsula Weather Network